首页
METAR-TAF:

METAR-TAF

机场 :

Albion Municipal Airport

Albion, 內布拉斯加州, 美国

纬度: 41-43-42N, 经度: 098-03-20W, 海拔: 551米

当前天气观测

该预报发布于32分钟前的02:55 UTC
静风
温度 19°C
湿度 78%
气压 1025 hPa
能見度: 16.1公里
阴天层高于4100英尺

METAR: KBVN 200255Z AUTO 00000KT 10SM OVC041 19/15 A3027 RMK AO2 T01910150

时间: 22:27 (03:27 UTC)


TAF: 丢失

超过4000个机场的气象观测和天气预报(METAR&TAF报告)。

可查询的气象台以黄色和红色小点在地图上表示。

将鼠标移到小点上方,可查看气象台名称。

然后点击查看天气观测和预报。

如需切换地图:点击带黑十字的绿色按钮放大地图;点击带横线的绿色按钮缩小地图;或者点击绿色箭头查看邻近地区的地图。


METAR-TAF: